createdAt,value
2018-12-22T00:02:09.981Z,100.00
2018-12-22T00:04:38.498Z,100.00
2018-12-22T00:07:07.040Z,100.00
2018-12-22T00:09:35.520Z,100.00
2018-12-22T00:12:04.086Z,100.00
2018-12-22T00:14:32.600Z,100.00
2018-12-22T00:17:01.103Z,100.00
2018-12-22T00:19:29.623Z,100.00
2018-12-22T00:21:59.289Z,100.00
2018-12-22T00:24:27.972Z,100.00
2018-12-22T00:26:56.581Z,100.00
2018-12-22T00:29:26.319Z,100.00
2018-12-22T00:31:55.078Z,100.00
2018-12-22T00:34:24.070Z,100.00
2018-12-22T00:36:52.762Z,100.00
2018-12-22T00:39:21.279Z,100.00
2018-12-22T00:41:49.897Z,99.78
2018-12-22T00:47:18.657Z,99.87
2018-12-22T00:49:47.763Z,98.77
2018-12-22T00:52:16.406Z,99.32
2018-12-22T00:54:44.969Z,100.00
2018-12-22T00:57:13.558Z,99.43
2018-12-22T00:59:42.151Z,100.00
2018-12-22T01:02:16.269Z,100.00
2018-12-22T01:04:44.802Z,99.81
2018-12-22T01:07:13.396Z,99.78
2018-12-22T01:09:41.937Z,99.87
2018-12-22T01:12:10.911Z,99.47
2018-12-22T01:14:40.025Z,99.92
2018-12-22T01:17:08.611Z,99.17
2018-12-22T01:19:37.154Z,99.18
2018-12-22T01:22:05.737Z,98.87
2018-12-22T01:24:34.318Z,99.00
2018-12-22T01:27:02.874Z,98.73
2018-12-22T01:29:31.639Z,98.27
2018-12-22T01:32:00.207Z,98.38
2018-12-22T01:34:30.362Z,98.16
2018-12-22T01:36:59.052Z,98.93
2018-12-22T01:39:27.516Z,98.91
2018-12-22T01:41:56.044Z,98.38
2018-12-22T01:44:24.778Z,97.87
2018-12-22T01:46:53.294Z,98.10
2018-12-22T01:49:21.882Z,97.58
2018-12-22T01:51:50.321Z,98.28
2018-12-22T01:54:20.926Z,98.75
2018-12-22T01:56:49.514Z,98.47
2018-12-22T01:59:18.586Z,98.26
2018-12-22T02:01:47.194Z,97.73
2018-12-22T02:04:16.388Z,98.25
2018-12-22T02:06:45.015Z,98.46
2018-12-22T02:09:13.480Z,98.12
2018-12-22T02:11:41.960Z,97.86
2018-12-22T02:14:10.460Z,97.78
2018-12-22T02:16:39.597Z,97.90
2018-12-22T02:19:08.182Z,98.47
2018-12-22T02:21:37.671Z,99.12
2018-12-22T02:24:06.168Z,99.63
2018-12-22T02:26:34.800Z,99.38
2018-12-22T02:29:03.286Z,100.00
2018-12-22T02:31:31.759Z,100.00
2018-12-22T02:34:00.268Z,100.00
2018-12-22T02:36:28.894Z,100.00
2018-12-22T02:38:58.117Z,100.00
2018-12-22T02:41:27.243Z,100.00
2018-12-22T02:43:55.724Z,100.00
2018-12-22T02:46:24.208Z,100.00
2018-12-22T02:48:52.736Z,99.39
2018-12-22T02:51:21.217Z,98.82
2018-12-22T02:53:50.122Z,98.60
2018-12-22T02:56:19.360Z,97.96
2018-12-22T02:58:47.794Z,98.73
2018-12-22T03:01:16.305Z,98.19
2018-12-22T03:03:44.740Z,97.27
2018-12-22T03:06:13.199Z,97.44
2018-12-22T03:08:41.793Z,96.79
2018-12-22T03:11:10.379Z,96.97
2018-12-22T03:13:39.147Z,96.84
2018-12-22T03:16:07.609Z,96.51
2018-12-22T03:18:36.176Z,96.78
2018-12-22T03:21:04.639Z,96.48
2018-12-22T03:23:33.163Z,96.89
2018-12-22T03:26:02.173Z,96.55
2018-12-22T03:28:30.686Z,95.88
2018-12-22T03:30:59.194Z,95.83
2018-12-22T03:33:27.946Z,96.06
2018-12-22T03:35:56.817Z,96.19
2018-12-22T03:38:25.308Z,95.92
2018-12-22T03:40:54.215Z,95.18
2018-12-22T03:43:22.804Z,95.31
2018-12-22T03:45:51.274Z,95.65
2018-12-22T03:48:21.457Z,95.50
2018-12-22T03:50:50.085Z,95.55
2018-12-22T03:53:18.653Z,95.74
2018-12-22T03:55:47.194Z,95.63
2018-12-22T03:58:15.665Z,96.12
2018-12-22T04:00:44.743Z,95.89
2018-12-22T04:03:13.319Z,95.49
2018-12-22T04:05:41.855Z,95.99
2018-12-22T04:08:10.386Z,96.16
2018-12-22T04:10:39.875Z,96.40
2018-12-22T04:13:09.242Z,97.00
2018-12-22T04:15:37.823Z,98.38
2018-12-22T04:18:06.357Z,98.54
2018-12-22T04:20:35.370Z,98.51
2018-12-22T04:23:03.996Z,98.50
2018-12-22T04:25:32.546Z,98.05
2018-12-22T04:28:02.319Z,97.91
2018-12-22T04:30:30.745Z,97.76
2018-12-22T04:33:00.088Z,97.02
2018-12-22T04:35:28.710Z,97.01
2018-12-22T04:37:57.317Z,97.10
2018-12-22T04:40:25.879Z,97.10
2018-12-22T04:42:54.369Z,96.20
2018-12-22T04:45:22.843Z,95.70
2018-12-22T04:47:51.916Z,96.16
2018-12-22T04:50:20.389Z,95.30
2018-12-22T04:52:49.518Z,94.96
2018-12-22T04:55:18.029Z,95.27
2018-12-22T04:57:47.259Z,95.58
2018-12-22T05:00:15.785Z,96.22
2018-12-22T05:02:44.267Z,97.15
2018-12-22T05:05:12.723Z,98.32
2018-12-22T05:07:41.333Z,98.15
2018-12-22T05:10:09.879Z,97.89
2018-12-22T05:12:38.686Z,98.74
2018-12-22T05:15:08.664Z,98.79
2018-12-22T05:17:37.836Z,97.58
2018-12-22T05:20:07.303Z,94.43
2018-12-22T05:22:35.758Z,92.88
2018-12-22T05:25:04.258Z,93.28
2018-12-22T05:27:32.754Z,93.21
2018-12-22T05:30:01.267Z,94.54
2018-12-22T05:32:29.854Z,93.76
2018-12-22T05:34:59.163Z,93.76
2018-12-22T05:37:28.532Z,94.13
2018-12-22T05:39:57.917Z,94.40
2018-12-22T05:42:26.670Z,94.40
2018-12-22T05:44:57.898Z,94.62
2018-12-22T05:47:27.475Z,94.79
2018-12-22T05:49:56.066Z,94.29
2018-12-22T05:52:24.562Z,93.45
2018-12-22T05:54:53.145Z,93.59
2018-12-22T05:57:22.311Z,94.14
2018-12-22T05:59:50.849Z,93.79
2018-12-22T06:02:19.726Z,94.73
2018-12-22T06:04:51.745Z,95.28
2018-12-22T06:07:20.339Z,95.61
2018-12-22T06:09:48.923Z,95.52
2018-12-22T06:12:19.176Z,96.08
2018-12-22T06:14:47.661Z,96.22
2018-12-22T06:17:16.937Z,95.90
2018-12-22T06:19:49.779Z,95.27
2018-12-22T06:22:19.043Z,94.80
2018-12-22T06:24:49.022Z,95.27
2018-12-22T06:27:20.612Z,94.59
2018-12-22T06:29:50.165Z,94.50
2018-12-22T06:32:19.682Z,94.59
2018-12-22T06:34:51.624Z,94.62
2018-12-22T06:37:22.212Z,94.93
2018-12-22T06:39:50.734Z,94.40
2018-12-22T06:42:21.006Z,94.51
2018-12-22T06:44:50.748Z,94.61
2018-12-22T06:47:20.649Z,93.34
2018-12-22T06:49:50.856Z,93.17
2018-12-22T06:52:20.848Z,92.78
2018-12-22T06:54:58.446Z,93.28
2018-12-22T06:57:26.917Z,92.81
2018-12-22T06:59:55.517Z,92.47
2018-12-22T07:02:25.645Z,92.11
2018-12-22T07:04:55.225Z,91.33
2018-12-22T07:07:24.344Z,91.47
2018-12-22T07:09:54.878Z,91.40
2018-12-22T07:12:23.413Z,90.24
2018-12-22T07:14:55.126Z,89.66
2018-12-22T07:17:24.283Z,89.49
2018-12-22T07:19:53.058Z,90.88
2018-12-22T07:22:24.342Z,90.25
2018-12-22T07:24:54.562Z,89.99
2018-12-22T07:27:25.371Z,90.60
2018-12-22T07:29:55.265Z,90.59
2018-12-22T07:32:25.655Z,90.14
2018-12-22T07:34:54.152Z,90.38
2018-12-22T07:37:24.038Z,89.63
2018-12-22T07:39:53.558Z,88.93
2018-12-22T07:42:23.999Z,89.41
2018-12-22T07:44:56.513Z,90.69
2018-12-22T07:47:25.519Z,90.21
2018-12-22T07:49:55.448Z,89.86
2018-12-22T07:52:24.390Z,89.01
2018-12-22T07:54:59.778Z,88.89
2018-12-22T07:57:29.352Z,88.72
2018-12-22T07:59:58.174Z,88.34
2018-12-22T08:02:28.057Z,88.32
2018-12-22T08:04:57.883Z,88.87
2018-12-22T08:07:27.215Z,88.49
2018-12-22T08:09:57.544Z,87.89
2018-12-22T08:12:31.034Z,87.93
2018-12-22T08:15:00.538Z,89.48
2018-12-22T08:17:29.172Z,89.00
2018-12-22T08:19:57.810Z,88.92
2018-12-22T08:22:26.974Z,90.25
2018-12-22T08:25:06.113Z,88.74
2018-12-22T08:27:34.889Z,88.75
2018-12-22T08:30:04.008Z,88.92
2018-12-22T08:32:33.417Z,88.50
2018-12-22T08:35:01.935Z,87.93
2018-12-22T08:37:30.585Z,87.90
2018-12-22T08:39:59.286Z,87.98
2018-12-22T08:42:27.817Z,87.42
2018-12-22T08:44:56.473Z,86.92
2018-12-22T08:47:25.004Z,86.04
2018-12-22T08:49:53.456Z,86.75
2018-12-22T08:52:22.119Z,86.00
2018-12-22T08:54:50.778Z,85.28
2018-12-22T08:57:19.834Z,85.61
2018-12-22T08:59:48.285Z,85.23
2018-12-22T09:02:16.882Z,85.78
2018-12-22T09:04:45.942Z,86.26
2018-12-22T09:07:14.541Z,88.97
2018-12-22T09:09:43.106Z,90.53
2018-12-22T09:12:11.554Z,93.02
2018-12-22T09:14:40.157Z,94.88
2018-12-22T09:17:08.809Z,94.44
2018-12-22T09:19:37.843Z,95.26
2018-12-22T09:22:07.223Z,94.86
2018-12-22T09:24:36.231Z,95.59
2018-12-22T09:27:04.775Z,96.28
2018-12-22T09:29:33.506Z,96.64
2018-12-22T09:32:02.558Z,96.80
2018-12-22T09:34:31.663Z,96.91
2018-12-22T09:37:00.224Z,97.08
2018-12-22T09:39:28.780Z,96.99
2018-12-22T09:41:57.480Z,97.42
2018-12-22T09:44:25.962Z,97.60
2018-12-22T09:46:54.477Z,98.33
2018-12-22T09:49:23.453Z,97.89
2018-12-22T09:51:51.856Z,96.19
2018-12-22T09:54:21.766Z,95.86
2018-12-22T09:56:50.345Z,96.02
2018-12-22T09:59:20.391Z,94.96
2018-12-22T10:01:48.966Z,94.62
2018-12-22T10:04:20.182Z,95.12
2018-12-22T10:06:49.622Z,94.96
2018-12-22T10:09:18.441Z,95.42
2018-12-22T10:11:46.909Z,95.44
2018-12-22T10:14:15.469Z,94.51
2018-12-22T10:16:43.964Z,94.12
2018-12-22T10:19:12.503Z,95.09
2018-12-22T10:21:41.043Z,95.64
2018-12-22T10:24:10.224Z,93.95
2018-12-22T10:26:40.378Z,92.84
2018-12-22T10:29:08.909Z,92.95
2018-12-22T10:31:38.342Z,92.99
2018-12-22T10:34:06.866Z,93.55
2018-12-22T10:36:35.469Z,93.41
2018-12-22T10:39:05.458Z,93.57
2018-12-22T10:41:33.934Z,91.51
2018-12-22T10:44:02.461Z,91.66
2018-12-22T10:46:30.973Z,92.35
2018-12-22T10:48:59.801Z,92.99
2018-12-22T10:51:28.336Z,93.37
2018-12-22T10:54:00.270Z,93.50
2018-12-22T10:56:28.819Z,92.67
2018-12-22T10:58:57.797Z,92.48
2018-12-22T11:01:26.954Z,93.02
2018-12-22T11:03:55.566Z,91.09
2018-12-22T11:06:24.877Z,89.88
2018-12-22T11:08:53.315Z,88.17
2018-12-22T11:11:21.822Z,87.75
2018-12-22T11:13:50.842Z,87.96
2018-12-22T11:16:19.424Z,87.31
2018-12-22T11:18:47.889Z,86.90
2018-12-22T11:21:16.624Z,85.64
2018-12-22T11:23:45.188Z,85.71
2018-12-22T11:26:13.807Z,86.09
2018-12-22T11:28:42.434Z,85.88
2018-12-22T11:31:10.938Z,86.66
2018-12-22T11:33:40.193Z,84.33
2018-12-22T11:36:08.797Z,83.97
2018-12-22T11:38:37.344Z,85.22
2018-12-22T11:41:05.935Z,85.58
2018-12-22T11:43:34.483Z,86.64
2018-12-22T11:46:03.080Z,85.84
2018-12-22T11:48:40.126Z,87.12
2018-12-22T11:51:09.170Z,86.79
2018-12-22T11:53:40.331Z,87.48
2018-12-22T11:56:08.878Z,86.75
2018-12-22T11:58:39.159Z,87.42
2018-12-22T12:01:07.804Z,87.71
2018-12-22T12:03:36.635Z,86.80
2018-12-22T12:06:05.208Z,87.65
2018-12-22T12:08:33.685Z,86.17
2018-12-22T12:11:03.088Z,85.40
2018-12-22T12:13:31.762Z,86.56
2018-12-22T12:17:10.028Z,85.75
2018-12-22T12:19:40.827Z,85.45
2018-12-22T12:22:09.452Z,85.33
2018-12-22T12:24:39.584Z,85.77
2018-12-22T12:27:08.664Z,85.55
2018-12-22T12:29:37.387Z,85.58
2018-12-22T12:32:05.975Z,86.56
2018-12-22T12:34:39.526Z,86.73
2018-12-22T12:37:08.126Z,85.99
2018-12-22T12:39:37.126Z,86.47
2018-12-22T12:42:05.680Z,86.27
2018-12-22T12:44:34.295Z,86.56
2018-12-22T12:47:03.113Z,87.80
2018-12-22T12:49:31.890Z,87.58
2018-12-22T12:52:01.155Z,88.26
2018-12-22T12:54:30.311Z,87.26
2018-12-22T12:56:59.946Z,87.35
2018-12-22T12:59:30.721Z,86.57
2018-12-22T13:02:01.429Z,87.06
2018-12-22T13:04:30.494Z,86.11
2018-12-22T13:06:59.319Z,86.28
2018-12-22T13:09:27.894Z,86.16
2018-12-22T13:11:59.198Z,87.17
2018-12-22T13:14:28.427Z,88.05
2018-12-22T13:16:57.258Z,90.22
2018-12-22T13:19:26.117Z,89.50
2018-12-22T13:21:55.369Z,91.37
2018-12-22T13:24:24.013Z,92.60
2018-12-22T13:26:53.367Z,91.89
2018-12-22T13:29:22.370Z,91.06
2018-12-22T13:31:52.068Z,89.83
2018-12-22T13:34:22.125Z,88.95
2018-12-22T13:36:50.827Z,90.15
2018-12-22T13:39:23.573Z,89.84
2018-12-22T13:41:54.809Z,89.80
2018-12-22T13:44:23.484Z,90.24
2018-12-22T13:46:52.339Z,89.21
2018-12-22T13:49:21.558Z,90.59
2018-12-22T13:51:50.547Z,90.67
2018-12-22T13:54:22.249Z,91.28
2018-12-22T13:56:50.910Z,92.25
2018-12-22T13:59:20.754Z,92.78
2018-12-22T14:01:55.874Z,93.59
2018-12-22T14:04:24.671Z,95.03
2018-12-22T14:06:53.230Z,94.32
2018-12-22T14:09:21.744Z,95.01
2018-12-22T14:11:51.268Z,96.29
2018-12-22T14:14:23.484Z,95.41
2018-12-22T14:17:31.649Z,94.45
2018-12-22T14:20:05.452Z,92.46
2018-12-22T14:22:35.199Z,91.84
2018-12-22T14:25:08.377Z,92.02
2018-12-22T14:27:39.532Z,91.69
2018-12-22T14:30:11.287Z,91.83
2018-12-22T14:32:40.093Z,90.75
2018-12-22T14:35:12.186Z,90.90
2018-12-22T14:37:40.742Z,90.04
2018-12-22T14:40:11.149Z,90.84
2018-12-22T14:42:40.259Z,90.13
2018-12-22T14:45:10.613Z,89.88
2018-12-22T14:47:39.330Z,89.65
2018-12-22T14:50:09.913Z,90.07
2018-12-22T14:52:38.589Z,90.26
2018-12-22T14:55:08.064Z,89.91
2018-12-22T14:57:42.939Z,90.04
2018-12-22T15:00:12.144Z,89.63
2018-12-22T15:02:40.739Z,90.43
2018-12-22T15:05:09.275Z,91.47
2018-12-22T15:07:37.999Z,91.04
2018-12-22T15:10:07.202Z,92.74
2018-12-22T15:12:36.058Z,93.69
2018-12-22T15:15:04.854Z,93.87
2018-12-22T15:17:33.409Z,93.99
2018-12-22T15:20:01.860Z,94.27
2018-12-22T15:22:30.457Z,94.50
2018-12-22T15:24:59.700Z,95.05
2018-12-22T15:27:28.271Z,95.42
2018-12-22T15:29:56.927Z,95.49
2018-12-22T15:32:25.478Z,96.60
2018-12-22T15:34:53.909Z,95.83
2018-12-22T15:37:22.552Z,95.85
2018-12-22T15:39:51.049Z,95.75
2018-12-22T15:42:20.479Z,96.07
2018-12-22T15:44:49.585Z,95.12
2018-12-22T15:47:20.737Z,95.25
2018-12-22T15:49:49.208Z,95.45
2018-12-22T15:52:19.839Z,94.63
2018-12-22T15:54:48.278Z,94.83
2018-12-22T15:57:16.746Z,94.27
2018-12-22T15:59:45.564Z,94.34
2018-12-22T16:02:14.044Z,94.23
2018-12-22T16:04:42.714Z,94.93
2018-12-22T16:07:11.595Z,95.08
2018-12-22T16:09:40.094Z,95.62
2018-12-22T16:12:08.566Z,95.92
2018-12-22T16:14:37.110Z,95.65
2018-12-22T16:17:05.618Z,96.07
2018-12-22T16:19:35.396Z,95.60
2018-12-22T16:22:04.556Z,95.32
2018-12-22T16:24:33.180Z,95.80
2018-12-22T16:27:01.674Z,96.14
2018-12-22T16:29:34.916Z,96.20
2018-12-22T16:32:03.443Z,96.52
2018-12-22T16:34:34.730Z,96.33
2018-12-22T16:37:03.478Z,96.79
2018-12-22T16:39:32.073Z,97.01
2018-12-22T16:42:01.201Z,95.80
2018-12-22T16:44:29.785Z,95.04
2018-12-22T16:46:59.163Z,94.00
2018-12-22T16:49:31.388Z,93.37
2018-12-22T16:52:00.294Z,92.15
2018-12-22T16:54:29.966Z,91.90
2018-12-22T16:56:58.888Z,91.17
2018-12-22T16:59:29.191Z,93.11
2018-12-22T17:02:03.161Z,92.73
2018-12-22T17:04:31.971Z,93.34
2018-12-22T17:07:01.469Z,93.89
2018-12-22T17:09:30.976Z,94.71
2018-12-22T17:12:00.379Z,94.70
2018-12-22T17:14:28.889Z,94.38
2018-12-22T17:16:58.165Z,94.41
2018-12-22T17:19:30.922Z,94.82
2018-12-22T17:22:09.112Z,95.94
2018-12-22T17:24:46.826Z,95.52
2018-12-22T17:27:16.278Z,94.38
2018-12-22T17:29:45.614Z,95.64
2018-12-22T17:32:14.183Z,94.97
2018-12-22T17:34:42.885Z,94.30
2018-12-22T17:37:12.128Z,94.63
2018-12-22T17:39:41.226Z,94.57
2018-12-22T17:42:12.272Z,94.80
2018-12-22T17:44:40.968Z,94.60
2018-12-22T17:47:10.113Z,94.54
2018-12-22T17:49:39.607Z,95.29
2018-12-22T17:52:09.034Z,94.62
2018-12-22T17:54:38.520Z,94.44
2018-12-22T17:57:07.607Z,93.21
2018-12-22T17:59:37.354Z,92.79
2018-12-22T18:02:06.158Z,93.89
2018-12-22T18:04:41.274Z,93.91
2018-12-22T18:07:13.972Z,94.15
2018-12-22T18:09:45.648Z,94.55
2018-12-22T18:12:17.488Z,94.19
2018-12-22T18:14:49.586Z,94.55
2018-12-22T18:17:23.336Z,95.31
2018-12-22T18:19:52.615Z,94.96
2018-12-22T18:22:21.641Z,94.94
2018-12-22T18:24:51.281Z,94.63
2018-12-22T18:27:20.820Z,94.57
2018-12-22T18:29:49.585Z,95.37
2018-12-22T18:32:19.918Z,95.26
2018-12-22T18:34:55.940Z,95.26
2018-12-22T18:37:46.140Z,96.07
2018-12-22T18:40:20.900Z,95.30
2018-12-22T18:42:54.655Z,95.94
2018-12-22T18:45:23.247Z,95.37
2018-12-22T18:50:33.494Z,95.50
2018-12-22T18:53:02.164Z,95.91
2018-12-22T18:55:34.229Z,96.19
2018-12-22T18:58:04.542Z,95.85
2018-12-22T19:00:33.370Z,95.88
2018-12-22T19:03:01.926Z,95.95
2018-12-22T19:05:30.509Z,96.35
2018-12-22T19:08:05.044Z,95.93
2018-12-22T19:10:43.562Z,96.21
2018-12-22T19:13:12.687Z,96.81
2018-12-22T19:15:42.164Z,96.07
2018-12-22T19:18:10.908Z,95.92
2018-12-22T19:20:49.529Z,95.78
2018-12-22T19:23:20.581Z,96.30
2018-12-22T19:25:50.312Z,95.45
2018-12-22T19:28:20.147Z,95.70
2018-12-22T19:30:51.323Z,96.17
2018-12-22T19:33:20.913Z,96.45
2018-12-22T19:35:50.410Z,96.70
2018-12-22T19:38:20.938Z,96.95
2018-12-22T19:40:54.083Z,96.40
2018-12-22T19:43:23.088Z,95.87
2018-12-22T19:45:52.565Z,95.36
2018-12-22T19:48:23.475Z,95.30
2018-12-22T19:50:53.232Z,96.55
2018-12-22T19:53:21.917Z,95.79
2018-12-22T19:55:50.856Z,94.59
2018-12-22T19:58:20.326Z,92.15
2018-12-22T20:00:49.172Z,92.23
2018-12-22T20:03:19.738Z,92.09
2018-12-22T20:05:49.758Z,92.18
2018-12-22T20:08:19.298Z,92.11
2018-12-22T20:10:49.228Z,92.18
2018-12-22T20:13:18.370Z,91.19
2018-12-22T20:15:47.617Z,91.35
2018-12-22T20:18:16.206Z,91.19
2018-12-22T20:20:44.955Z,91.83
2018-12-22T20:23:13.614Z,92.38
2018-12-22T20:25:42.969Z,92.02
2018-12-22T20:28:12.233Z,93.06
2018-12-22T20:30:41.087Z,92.98
2018-12-22T20:33:09.578Z,93.58
2018-12-22T20:35:39.819Z,93.06
2018-12-22T20:38:09.209Z,94.09
2018-12-22T20:40:37.766Z,93.29
2018-12-22T20:43:06.346Z,93.55
2018-12-22T20:45:35.155Z,93.68
2018-12-22T20:48:03.598Z,93.32
2018-12-22T20:50:32.323Z,93.81
2018-12-22T20:53:01.544Z,93.89
2018-12-22T20:55:30.050Z,93.73
2018-12-22T20:57:58.857Z,94.57
2018-12-22T21:00:27.354Z,94.59
2018-12-22T21:02:55.785Z,94.84
2018-12-22T21:05:24.347Z,96.52
2018-12-22T21:07:52.795Z,96.52
2018-12-22T21:10:22.343Z,96.84
2018-12-22T21:12:50.808Z,96.52
2018-12-22T21:15:22.193Z,96.19
2018-12-22T21:17:50.701Z,95.97
2018-12-22T21:20:19.383Z,96.05
2018-12-22T21:22:47.837Z,95.83
2018-12-22T21:25:16.290Z,96.38
2018-12-22T21:27:44.806Z,96.58
2018-12-22T21:30:13.317Z,95.09
2018-12-22T21:32:41.855Z,95.24
2018-12-22T21:35:15.451Z,95.35
2018-12-22T21:37:43.886Z,96.28
2018-12-22T21:40:12.374Z,96.52
2018-12-22T21:42:41.486Z,95.11
2018-12-22T21:45:09.963Z,95.36
2018-12-22T21:47:38.560Z,96.03
2018-12-22T21:50:07.159Z,95.61
2018-12-22T21:52:35.635Z,96.19
2018-12-22T21:55:04.125Z,96.91
2018-12-22T21:57:33.423Z,97.43
2018-12-22T22:00:01.911Z,98.12
2018-12-22T22:02:30.410Z,97.96
2018-12-22T22:05:01.472Z,97.76
2018-12-22T22:07:29.947Z,98.35
2018-12-22T22:09:58.577Z,98.50
2018-12-22T22:12:27.082Z,98.32
2018-12-22T22:14:56.176Z,99.05
2018-12-22T22:17:24.755Z,98.34
2018-12-22T22:19:53.231Z,97.86
2018-12-22T22:22:21.841Z,98.16
2018-12-22T22:24:50.313Z,98.47
2018-12-22T22:27:19.489Z,98.61
2018-12-22T22:29:47.988Z,98.69
2018-12-22T22:32:16.601Z,99.12
2018-12-22T22:34:45.633Z,99.39
2018-12-22T22:37:14.541Z,99.23
2018-12-22T22:39:44.120Z,99.41
2018-12-22T22:42:12.672Z,99.53
2018-12-22T22:44:41.820Z,99.26
2018-12-22T22:47:10.393Z,98.88
2018-12-22T22:49:39.015Z,99.13
2018-12-22T22:52:07.476Z,98.79
2018-12-22T22:54:35.897Z,98.70
2018-12-22T22:57:04.713Z,98.58
2018-12-22T22:59:33.519Z,97.94
2018-12-22T23:02:02.762Z,98.15
2018-12-22T23:04:31.241Z,98.61
2018-12-22T23:07:00.086Z,98.62
2018-12-22T23:09:29.047Z,97.67
2018-12-22T23:11:58.182Z,96.72
2018-12-22T23:14:26.969Z,95.92
2018-12-22T23:16:55.672Z,95.74
2018-12-22T23:19:24.177Z,95.70
2018-12-22T23:21:52.909Z,94.98
2018-12-22T23:24:22.032Z,95.56
2018-12-22T23:26:50.797Z,95.28
2018-12-22T23:32:09.815Z,94.91
2018-12-22T23:34:39.219Z,94.65
2018-12-22T23:37:37.606Z,94.73
2018-12-22T23:40:06.373Z,94.61
2018-12-22T23:42:35.000Z,94.33
2018-12-22T23:45:03.618Z,93.80
2018-12-22T23:47:32.894Z,94.61
2018-12-22T23:50:01.397Z,94.71
2018-12-22T23:52:29.917Z,94.32
2018-12-22T23:54:58.494Z,94.41
2018-12-22T23:57:27.558Z,94.05
2018-12-22T23:59:56.035Z,94.88
